createdAt,value
2018-01-21T00:00:07.444Z,976.36
2018-01-21T00:02:04.178Z,976.37
2018-01-21T00:03:04.148Z,976.36
2018-01-21T00:04:57.508Z,976.42
2018-01-21T00:05:57.458Z,976.41
2018-01-21T00:07:50.803Z,976.50
2018-01-21T00:08:50.820Z,976.53
2018-01-21T00:10:44.135Z,976.57
2018-01-21T00:11:44.103Z,976.57
2018-01-21T00:13:37.421Z,976.64
2018-01-21T00:14:37.372Z,976.64
2018-01-21T00:16:30.718Z,976.68
2018-01-21T00:17:30.677Z,976.67
2018-01-21T00:19:24.038Z,976.73
2018-01-21T00:20:23.997Z,976.75
2018-01-21T00:22:17.356Z,976.78
2018-01-21T00:23:17.300Z,976.77
2018-01-21T00:25:10.659Z,976.73
2018-01-21T00:26:10.616Z,976.74
2018-01-21T00:28:06.474Z,976.77
2018-01-21T00:29:06.427Z,976.80
2018-01-21T00:31:00.660Z,976.83
2018-01-21T00:32:00.601Z,976.84
2018-01-21T00:33:53.972Z,976.86
2018-01-21T00:34:53.903Z,976.86
2018-01-21T00:36:49.758Z,976.88
2018-01-21T00:37:49.714Z,976.89
2018-01-21T00:39:43.060Z,976.92
2018-01-21T00:40:43.021Z,976.94
2018-01-21T00:42:36.390Z,976.94
2018-01-21T00:43:36.328Z,976.97
2018-01-21T00:45:30.493Z,976.96
2018-01-21T00:46:30.450Z,976.98
2018-01-21T00:48:23.817Z,976.97
2018-01-21T00:49:23.768Z,977.00
2018-01-21T00:51:17.134Z,976.98
2018-01-21T00:52:17.074Z,976.99
2018-01-21T00:54:11.309Z,977.00
2018-01-21T00:55:11.270Z,977.03
2018-01-21T00:57:05.517Z,977.03
2018-01-21T00:58:05.462Z,977.06
2018-01-21T00:59:58.818Z,977.03
2018-01-21T01:00:58.772Z,977.07
2018-01-21T01:02:52.145Z,977.09
2018-01-21T01:03:52.082Z,977.07
2018-01-21T01:05:47.955Z,977.13
2018-01-21T01:06:47.894Z,977.12
2018-01-21T01:08:40.773Z,977.18
2018-01-21T01:09:40.714Z,977.17
2018-01-21T01:11:34.076Z,977.22
2018-01-21T01:12:34.030Z,977.24
2018-01-21T01:14:27.387Z,977.30
2018-01-21T01:15:27.344Z,977.27
2018-01-21T01:17:21.583Z,977.33
2018-01-21T01:18:21.526Z,977.33
2018-01-21T01:20:14.915Z,977.39
2018-01-21T01:21:14.868Z,977.38
2018-01-21T01:23:08.211Z,977.44
2018-01-21T01:24:08.168Z,977.41
2018-01-21T01:26:01.525Z,977.45
2018-01-21T01:27:01.478Z,977.50
2018-01-21T01:28:54.834Z,977.49
2018-01-21T01:29:54.790Z,977.55
2018-01-21T01:31:48.187Z,977.55
2018-01-21T01:32:48.122Z,977.59
2018-01-21T01:34:41.485Z,977.60
2018-01-21T01:35:41.439Z,977.65
2018-01-21T01:37:34.803Z,977.74
2018-01-21T01:38:34.747Z,977.76
2018-01-21T01:40:28.122Z,977.77
2018-01-21T01:41:28.070Z,977.80
2018-01-21T01:43:21.427Z,977.84
2018-01-21T01:44:21.380Z,977.84
2018-01-21T01:46:14.725Z,977.89
2018-01-21T01:47:14.690Z,977.87
2018-01-21T01:49:08.051Z,977.86
2018-01-21T01:50:08.008Z,977.85
2018-01-21T01:52:01.423Z,977.89
2018-01-21T01:53:01.327Z,977.92
2018-01-21T01:54:54.704Z,977.89
2018-01-21T01:55:54.644Z,977.91
2018-01-21T01:57:48.003Z,977.96
2018-01-21T01:58:47.954Z,977.96
2018-01-21T02:00:41.363Z,977.97
2018-01-21T02:01:41.263Z,978.00
2018-01-21T02:03:34.621Z,977.99
2018-01-21T02:04:34.590Z,978.02
2018-01-21T02:06:27.940Z,978.03
2018-01-21T02:07:27.894Z,978.07
2018-01-21T02:09:24.579Z,978.12
2018-01-21T02:10:24.546Z,978.11
2018-01-21T02:12:18.885Z,978.11
2018-01-21T02:13:18.878Z,978.13
2018-01-21T02:15:14.710Z,978.13
2018-01-21T02:16:14.656Z,978.12
2018-01-21T02:18:08.010Z,978.15
2018-01-21T02:19:07.964Z,978.14
2018-01-21T02:21:01.336Z,978.14
2018-01-21T02:22:01.275Z,978.13
2018-01-21T02:23:54.632Z,978.11
2018-01-21T02:24:54.588Z,978.12
2018-01-21T02:26:47.942Z,978.16
2018-01-21T02:27:47.899Z,978.20
2018-01-21T02:29:41.314Z,978.24
2018-01-21T02:30:41.267Z,978.26
2018-01-21T02:32:34.612Z,978.30
2018-01-21T02:33:34.566Z,978.33
2018-01-21T02:35:27.936Z,978.32
2018-01-21T02:36:27.881Z,978.32
2018-01-21T02:38:23.748Z,978.37
2018-01-21T02:39:23.690Z,978.38
2018-01-21T02:41:17.053Z,978.42
2018-01-21T02:42:17.016Z,978.42
2018-01-21T02:44:10.402Z,978.41
2018-01-21T02:45:10.348Z,978.40
2018-01-21T02:47:03.705Z,978.41
2018-01-21T02:48:03.652Z,978.42
2018-01-21T02:49:57.027Z,978.42
2018-01-21T02:50:56.963Z,978.44
2018-01-21T02:52:50.323Z,978.43
2018-01-21T02:53:50.263Z,978.45
2018-01-21T02:55:44.487Z,978.45
2018-01-21T02:56:44.490Z,978.44
2018-01-21T02:58:37.815Z,978.46
2018-01-21T02:59:37.755Z,978.47
2018-01-21T03:01:31.110Z,978.46
2018-01-21T03:02:31.075Z,978.50
2018-01-21T03:04:24.425Z,978.47
2018-01-21T03:05:24.380Z,978.53
2018-01-21T03:07:17.752Z,978.60
2018-01-21T03:08:17.703Z,978.65
2018-01-21T03:10:13.558Z,978.68
2018-01-21T03:11:13.532Z,978.69
2018-01-21T03:13:09.367Z,978.74
2018-01-21T03:14:09.318Z,978.77
2018-01-21T03:16:02.669Z,978.76
2018-01-21T03:17:02.628Z,978.77
2018-01-21T03:18:55.991Z,978.85
2018-01-21T03:19:55.942Z,978.85
2018-01-21T03:21:49.303Z,978.87
2018-01-21T03:22:49.250Z,978.87
2018-01-21T03:24:42.606Z,978.86
2018-01-21T03:25:42.558Z,978.95
2018-01-21T03:27:35.928Z,978.94
2018-01-21T03:28:35.864Z,978.98
2018-01-21T03:30:29.215Z,978.98
2018-01-21T03:31:29.175Z,979.01
2018-01-21T03:33:22.575Z,979.03
2018-01-21T03:34:22.500Z,979.05
2018-01-21T03:36:15.851Z,979.07
2018-01-21T03:37:15.790Z,979.12
2018-01-21T03:39:08.667Z,979.13
2018-01-21T03:40:08.616Z,979.15
2018-01-21T03:42:02.893Z,979.16
2018-01-21T03:43:02.850Z,979.15
2018-01-21T03:44:56.219Z,979.19
2018-01-21T03:45:56.163Z,979.22
2018-01-21T03:47:49.528Z,979.22
2018-01-21T03:48:49.476Z,979.25
2018-01-21T03:50:45.342Z,979.26
2018-01-21T03:51:45.285Z,979.29
2018-01-21T03:53:38.690Z,979.29
2018-01-21T03:54:38.632Z,979.33
2018-01-21T03:56:31.958Z,979.37
2018-01-21T03:57:31.906Z,979.37
2018-01-21T03:59:25.287Z,979.41
2018-01-21T04:00:25.228Z,979.41
2018-01-21T04:02:18.574Z,979.43
2018-01-21T04:03:18.531Z,979.44
2018-01-21T04:05:12.736Z,979.46
2018-01-21T04:06:12.685Z,979.45
2018-01-21T04:08:06.063Z,979.44
2018-01-21T04:09:06.000Z,979.47
2018-01-21T04:10:59.365Z,979.52
2018-01-21T04:11:59.323Z,979.54
2018-01-21T04:13:52.679Z,979.53
2018-01-21T04:14:52.676Z,979.54
2018-01-21T04:16:45.992Z,979.59
2018-01-21T04:17:45.949Z,979.60
2018-01-21T04:19:39.297Z,979.69
2018-01-21T04:20:39.257Z,979.75
2018-01-21T04:22:35.120Z,979.78
2018-01-21T04:23:35.073Z,979.79
2018-01-21T04:25:28.448Z,979.85
2018-01-21T04:26:28.405Z,979.83
2018-01-21T04:28:21.768Z,979.85
2018-01-21T04:29:21.717Z,979.86
2018-01-21T04:31:15.109Z,979.89
2018-01-21T04:32:15.063Z,979.91
2018-01-21T04:34:10.904Z,979.92
2018-01-21T04:35:10.859Z,979.92
2018-01-21T04:37:07.611Z,979.94
2018-01-21T04:38:07.572Z,980.00
2018-01-21T04:40:00.941Z,979.97
2018-01-21T04:41:00.892Z,980.04
2018-01-21T04:42:56.775Z,980.05
2018-01-21T04:43:56.710Z,980.10
2018-01-21T04:45:50.093Z,980.12
2018-01-21T04:46:50.033Z,980.11
2018-01-21T04:48:43.390Z,980.15
2018-01-21T04:49:43.348Z,980.16
2018-01-21T04:51:36.749Z,980.22
2018-01-21T04:52:36.650Z,980.24
2018-01-21T04:54:30.017Z,980.30
2018-01-21T04:55:29.972Z,980.35
2018-01-21T04:57:23.329Z,980.37
2018-01-21T04:58:23.286Z,980.41
2018-01-21T05:00:16.698Z,980.47
2018-01-21T05:01:16.653Z,980.45
2018-01-21T05:03:10.010Z,980.52
2018-01-21T05:04:09.958Z,980.55
2018-01-21T05:06:04.188Z,980.60
2018-01-21T05:07:04.142Z,980.62
2018-01-21T05:09:00.015Z,980.63
2018-01-21T05:09:59.961Z,980.70
2018-01-21T05:11:53.316Z,980.72
2018-01-21T05:12:53.271Z,980.77
2018-01-21T05:14:46.688Z,980.76
2018-01-21T05:15:46.625Z,980.81
2018-01-21T05:17:40.030Z,980.84
2018-01-21T05:18:39.942Z,980.88
2018-01-21T05:20:33.297Z,980.94
2018-01-21T05:21:33.248Z,980.94
2018-01-21T05:23:26.602Z,980.96
2018-01-21T05:24:26.557Z,980.97
2018-01-21T05:26:19.907Z,980.99
2018-01-21T05:27:19.867Z,981.03
2018-01-21T05:29:13.220Z,981.07
2018-01-21T05:30:13.166Z,981.08
2018-01-21T05:32:06.526Z,981.11
2018-01-21T05:33:06.477Z,981.14
2018-01-21T05:35:00.650Z,981.22
2018-01-21T05:36:00.637Z,981.22
2018-01-21T05:37:53.947Z,981.25
2018-01-21T05:38:53.899Z,981.30
2018-01-21T05:40:47.258Z,981.31
2018-01-21T05:41:47.213Z,981.35
2018-01-21T05:43:40.582Z,981.42
2018-01-21T05:44:40.539Z,981.42
2018-01-21T05:46:33.908Z,981.50
2018-01-21T05:47:33.871Z,981.53
2018-01-21T05:49:27.220Z,981.62
2018-01-21T05:50:27.153Z,981.63
2018-01-21T05:52:20.512Z,981.65
2018-01-21T05:53:20.476Z,981.65
2018-01-21T05:55:13.882Z,981.70
2018-01-21T05:56:13.812Z,981.68
2018-01-21T05:58:09.667Z,981.72
2018-01-21T05:59:09.615Z,981.77
2018-01-21T06:01:02.976Z,981.85
2018-01-21T06:02:02.932Z,981.80
2018-01-21T06:03:56.290Z,981.88
2018-01-21T06:04:56.235Z,981.95
2018-01-21T06:06:49.586Z,982.02
2018-01-21T06:07:49.556Z,982.05
2018-01-21T06:09:42.931Z,982.08
2018-01-21T06:10:42.856Z,982.09
2018-01-21T06:12:36.210Z,982.11
2018-01-21T06:13:36.167Z,982.12
2018-01-21T06:15:29.520Z,982.20
2018-01-21T06:16:29.481Z,982.25
2018-01-21T06:18:25.340Z,982.31
2018-01-21T06:19:25.283Z,982.29
2018-01-21T06:21:21.164Z,982.35
2018-01-21T06:22:21.102Z,982.36
2018-01-21T06:24:14.479Z,982.41
2018-01-21T06:25:14.428Z,982.44
2018-01-21T06:27:07.791Z,982.54
2018-01-21T06:28:07.738Z,982.57
2018-01-21T06:30:01.103Z,982.64
2018-01-21T06:31:01.046Z,982.64
2018-01-21T06:32:54.409Z,982.69
2018-01-21T06:33:54.352Z,982.70
2018-01-21T06:35:47.708Z,982.73
2018-01-21T06:36:47.663Z,982.73
2018-01-21T06:38:41.893Z,982.84
2018-01-21T06:39:41.848Z,982.84
2018-01-21T06:41:35.211Z,982.84
2018-01-21T06:42:35.168Z,982.87
2018-01-21T06:44:31.023Z,982.91
2018-01-21T06:45:30.982Z,982.97
2018-01-21T06:47:24.328Z,983.00
2018-01-21T06:48:24.284Z,983.07
2018-01-21T06:50:17.648Z,983.05
2018-01-21T06:51:17.607Z,983.10
2018-01-21T06:53:13.450Z,983.16
2018-01-21T06:54:13.401Z,983.16
2018-01-21T06:56:06.746Z,983.23
2018-01-21T06:57:06.701Z,983.25
2018-01-21T06:59:00.059Z,983.29
2018-01-21T07:00:00.064Z,983.30
2018-01-21T07:01:54.238Z,983.34
2018-01-21T07:02:54.197Z,983.36
2018-01-21T07:04:47.552Z,983.36
2018-01-21T07:05:47.509Z,983.42
2018-01-21T07:07:40.869Z,983.48
2018-01-21T07:08:40.824Z,983.48
2018-01-21T07:10:34.222Z,983.53
2018-01-21T07:11:34.145Z,983.57
2018-01-21T07:13:27.514Z,983.63
2018-01-21T07:14:27.455Z,983.67
2018-01-21T07:16:21.668Z,983.68
2018-01-21T07:17:21.639Z,983.72
2018-01-21T07:19:17.490Z,983.77
2018-01-21T07:20:17.447Z,983.84
2018-01-21T07:22:10.814Z,983.86
2018-01-21T07:23:10.762Z,983.90
2018-01-21T07:25:04.133Z,983.97
2018-01-21T07:26:04.089Z,984.03
2018-01-21T07:27:57.463Z,984.05
2018-01-21T07:28:57.427Z,984.05
2018-01-21T07:30:50.776Z,984.14
2018-01-21T07:31:50.730Z,984.12
2018-01-21T07:33:46.581Z,984.17
2018-01-21T07:34:46.538Z,984.19
2018-01-21T07:36:39.929Z,984.26
2018-01-21T07:37:39.874Z,984.31
2018-01-21T07:39:33.258Z,984.35
2018-01-21T07:40:33.210Z,984.36
2018-01-21T07:42:26.565Z,984.38
2018-01-21T07:43:26.517Z,984.44
2018-01-21T07:45:19.920Z,984.52
2018-01-21T07:46:19.859Z,984.53
2018-01-21T07:48:13.230Z,984.60
2018-01-21T07:49:13.170Z,984.61
2018-01-21T07:51:06.525Z,984.69
2018-01-21T07:52:06.480Z,984.69
2018-01-21T07:53:59.845Z,984.81
2018-01-21T07:54:59.802Z,984.84
2018-01-21T07:56:53.171Z,984.88
2018-01-21T07:57:53.164Z,984.89
2018-01-21T07:59:46.477Z,984.90
2018-01-21T08:00:46.440Z,984.93
2018-01-21T08:02:39.813Z,984.98
2018-01-21T08:03:39.740Z,984.99
2018-01-21T08:05:33.095Z,985.05
2018-01-21T08:06:33.042Z,985.08
2018-01-21T08:08:26.409Z,985.18
2018-01-21T08:09:26.348Z,985.20
2018-01-21T08:11:19.697Z,985.25
2018-01-21T08:12:19.655Z,985.31
2018-01-21T08:14:13.071Z,985.31
2018-01-21T08:15:12.988Z,985.40
2018-01-21T08:17:06.345Z,985.44
2018-01-21T08:18:06.303Z,985.48
2018-01-21T08:20:02.157Z,985.52
2018-01-21T08:21:02.116Z,985.56
2018-01-21T08:22:57.997Z,985.60
2018-01-21T08:23:57.953Z,985.64
2018-01-21T08:25:51.308Z,985.73
2018-01-21T08:26:51.258Z,985.75
2018-01-21T08:28:44.618Z,985.74
2018-01-21T08:29:44.564Z,985.79
2018-01-21T08:31:37.439Z,985.81
2018-01-21T08:32:37.387Z,985.81
2018-01-21T08:34:30.755Z,985.88
2018-01-21T08:35:30.698Z,985.86
2018-01-21T08:37:24.064Z,985.95
2018-01-21T08:38:24.005Z,985.94
2018-01-21T08:40:18.158Z,986.06
2018-01-21T08:41:18.117Z,985.99
2018-01-21T08:43:14.002Z,986.06
2018-01-21T08:44:13.949Z,986.10
2018-01-21T08:46:07.337Z,986.15
2018-01-21T08:47:07.265Z,986.23
2018-01-21T08:49:01.618Z,986.31
2018-01-21T08:50:01.562Z,986.28
2018-01-21T08:51:57.420Z,986.38
2018-01-21T08:52:57.380Z,986.40
2018-01-21T08:54:50.735Z,986.47
2018-01-21T08:55:50.688Z,986.50
2018-01-21T08:57:46.570Z,986.56
2018-01-21T08:58:46.505Z,986.57
2018-01-21T09:00:42.415Z,986.60
2018-01-21T09:01:42.312Z,986.63
2018-01-21T09:03:35.680Z,986.68
2018-01-21T09:04:35.624Z,986.74
2018-01-21T09:06:28.988Z,986.79
2018-01-21T09:07:28.938Z,986.79
2018-01-21T09:09:24.808Z,986.87
2018-01-21T09:10:24.769Z,986.88
2018-01-21T09:12:18.128Z,986.91
2018-01-21T09:13:18.069Z,986.92
2018-01-21T09:15:11.432Z,986.96
2018-01-21T09:16:11.389Z,987.01
2018-01-21T09:18:04.722Z,987.03
2018-01-21T09:19:04.711Z,987.01
2018-01-21T09:20:58.060Z,987.11
2018-01-21T09:21:58.009Z,987.12
2018-01-21T09:23:51.416Z,987.12
2018-01-21T09:24:51.365Z,987.15
2018-01-21T09:26:44.714Z,987.18
2018-01-21T09:27:44.637Z,987.15
2018-01-21T09:29:38.007Z,987.19
2018-01-21T09:30:37.942Z,987.25
2018-01-21T09:32:31.312Z,987.22
2018-01-21T09:33:31.263Z,987.26
2018-01-21T09:35:24.682Z,987.30
2018-01-21T09:36:24.593Z,987.30
2018-01-21T09:38:17.962Z,987.38
2018-01-21T09:39:17.905Z,987.36
2018-01-21T09:41:13.757Z,987.47
2018-01-21T09:42:13.707Z,987.53
2018-01-21T09:44:07.064Z,987.58
2018-01-21T09:45:07.033Z,987.60
2018-01-21T09:47:00.420Z,987.64
2018-01-21T09:48:00.322Z,987.66
2018-01-21T09:49:53.679Z,987.66
2018-01-21T09:50:53.644Z,987.71
2018-01-21T09:52:46.985Z,987.70
2018-01-21T09:53:46.944Z,987.75
2018-01-21T09:55:41.129Z,987.80
2018-01-21T09:56:41.096Z,987.86
2018-01-21T09:58:34.461Z,987.87
2018-01-21T09:59:34.443Z,987.90
2018-01-21T10:01:28.655Z,987.87
2018-01-21T10:02:28.620Z,987.89
2018-01-21T10:04:21.963Z,987.91
2018-01-21T10:05:21.921Z,987.91
2018-01-21T10:07:15.271Z,987.97
2018-01-21T10:08:15.230Z,987.98
2018-01-21T10:10:11.103Z,987.94
2018-01-21T10:11:11.064Z,987.96
2018-01-21T10:13:04.413Z,988.00
2018-01-21T10:14:04.376Z,988.01
2018-01-21T10:15:57.722Z,988.07
2018-01-21T10:16:57.684Z,988.06
2018-01-21T10:18:51.039Z,988.07
2018-01-21T10:19:50.994Z,988.09
2018-01-21T10:21:46.867Z,988.09
2018-01-21T10:22:46.825Z,988.12
2018-01-21T10:24:40.181Z,988.17
2018-01-21T10:25:40.138Z,988.15
2018-01-21T10:27:33.564Z,988.22
2018-01-21T10:28:33.461Z,988.24
2018-01-21T10:30:26.825Z,988.28
2018-01-21T10:31:26.782Z,988.35
2018-01-21T10:33:22.652Z,988.38
2018-01-21T10:34:22.615Z,988.42
2018-01-21T10:36:15.972Z,988.38
2018-01-21T10:37:15.926Z,988.42
2018-01-21T10:39:12.648Z,988.47
2018-01-21T10:40:12.603Z,988.45
2018-01-21T10:42:06.015Z,988.51
2018-01-21T10:43:05.973Z,988.54
2018-01-21T10:45:01.835Z,988.53
2018-01-21T10:46:01.784Z,988.58
2018-01-21T10:47:57.643Z,988.57
2018-01-21T10:48:57.600Z,988.59
2018-01-21T10:50:53.473Z,988.59
2018-01-21T10:51:53.430Z,988.60
2018-01-21T10:53:46.832Z,988.63
2018-01-21T10:54:46.750Z,988.64
2018-01-21T10:56:42.612Z,988.66
2018-01-21T10:57:42.571Z,988.74
2018-01-21T10:59:38.457Z,988.77
2018-01-21T11:00:38.396Z,988.79
2018-01-21T11:02:31.776Z,988.81
2018-01-21T11:03:31.716Z,988.82
2018-01-21T11:05:27.602Z,988.86
2018-01-21T11:06:27.532Z,988.83
2018-01-21T11:08:20.907Z,988.89
2018-01-21T11:09:20.856Z,988.92
2018-01-21T11:11:15.125Z,988.93
2018-01-21T11:12:15.074Z,988.90
2018-01-21T11:14:08.428Z,988.99
2018-01-21T11:15:08.388Z,989.01
2018-01-21T11:17:04.255Z,989.03
2018-01-21T11:18:04.197Z,989.02
2018-01-21T11:19:57.559Z,989.06
2018-01-21T11:20:57.521Z,989.11
2018-01-21T11:22:51.739Z,989.16
2018-01-21T11:23:51.692Z,989.16
2018-01-21T11:25:45.050Z,989.20
2018-01-21T11:26:45.010Z,989.22
2018-01-21T11:28:38.379Z,989.27
2018-01-21T11:29:38.332Z,989.25
2018-01-21T11:31:31.720Z,989.28
2018-01-21T11:32:31.650Z,989.34
2018-01-21T11:34:25.023Z,989.40
2018-01-21T11:35:24.962Z,989.44
2018-01-21T11:37:20.828Z,989.45
2018-01-21T11:38:20.787Z,989.44
2018-01-21T11:40:14.210Z,989.47
2018-01-21T11:41:14.098Z,989.51
2018-01-21T11:43:07.439Z,989.50
2018-01-21T11:44:07.401Z,989.50
2018-01-21T11:46:04.098Z,989.52
2018-01-21T11:47:04.045Z,989.55
2018-01-21T11:48:57.406Z,989.55
2018-01-21T11:49:57.358Z,989.55
2018-01-21T11:51:50.708Z,989.54
2018-01-21T11:52:50.661Z,989.53
2018-01-21T11:54:44.022Z,989.56
2018-01-21T11:55:43.975Z,989.58
2018-01-21T11:57:37.337Z,989.60
2018-01-21T11:58:37.295Z,989.62
2018-01-21T12:00:30.730Z,989.63
2018-01-21T12:01:30.619Z,989.69
2018-01-21T12:03:24.016Z,989.70
2018-01-21T12:04:23.963Z,989.74
2018-01-21T12:06:17.322Z,989.75
2018-01-21T12:07:17.279Z,989.78
2018-01-21T12:09:10.655Z,989.80
2018-01-21T12:10:10.593Z,989.77
2018-01-21T12:12:03.954Z,989.78
2018-01-21T12:13:03.913Z,989.82
2018-01-21T12:14:57.310Z,989.80
2018-01-21T12:15:57.255Z,989.81
2018-01-21T12:17:53.130Z,989.82
2018-01-21T12:18:53.093Z,989.84
2018-01-21T12:20:47.270Z,989.86
2018-01-21T12:21:47.225Z,989.90
2018-01-21T12:23:40.582Z,989.90
2018-01-21T12:24:40.537Z,989.92
2018-01-21T12:26:34.897Z,989.96
2018-01-21T12:27:34.847Z,989.99
2018-01-21T12:29:28.251Z,990.03
2018-01-21T12:30:28.197Z,990.05
2018-01-21T12:32:21.570Z,990.07
2018-01-21T12:33:21.524Z,990.05
2018-01-21T12:35:14.921Z,990.08
2018-01-21T12:36:14.867Z,990.09
2018-01-21T12:38:09.041Z,990.13
2018-01-21T12:39:08.991Z,990.14
2018-01-21T12:41:02.351Z,990.12
2018-01-21T12:42:02.309Z,990.12
2018-01-21T12:43:56.689Z,990.12
2018-01-21T12:44:56.658Z,990.12
2018-01-21T12:46:51.219Z,990.10
2018-01-21T12:47:51.192Z,990.08
2018-01-21T12:49:47.053Z,990.10
2018-01-21T12:50:46.992Z,990.08
2018-01-21T12:52:40.518Z,990.11
2018-01-21T12:53:40.482Z,990.13
2018-01-21T12:55:33.889Z,990.12
2018-01-21T12:56:33.808Z,990.18
2018-01-21T12:58:27.177Z,990.12
2018-01-21T12:59:27.126Z,990.15
2018-01-21T13:01:20.487Z,990.16
2018-01-21T13:02:20.444Z,990.17
2018-01-21T13:04:16.308Z,990.22
2018-01-21T13:05:16.254Z,990.24
2018-01-21T13:07:09.620Z,990.23
2018-01-21T13:08:09.577Z,990.26
2018-01-21T13:10:02.937Z,990.28
2018-01-21T13:11:02.921Z,990.24
2018-01-21T13:12:58.774Z,990.34
2018-01-21T13:13:58.730Z,990.34
2018-01-21T13:15:54.587Z,990.35
2018-01-21T13:16:54.540Z,990.37
2018-01-21T13:18:47.944Z,990.37
2018-01-21T13:19:47.921Z,990.39
2018-01-21T13:21:43.751Z,990.43
2018-01-21T13:22:43.693Z,990.44
2018-01-21T13:24:38.084Z,990.45
2018-01-21T13:25:38.028Z,990.46
2018-01-21T13:27:33.949Z,990.48
2018-01-21T13:28:33.836Z,990.47
2018-01-21T13:30:27.244Z,990.55
2018-01-21T13:31:27.168Z,990.55
2018-01-21T13:33:20.585Z,990.59
2018-01-21T13:34:20.484Z,990.61
2018-01-21T13:36:17.169Z,990.68
2018-01-21T13:37:17.103Z,990.70
2018-01-21T13:39:10.460Z,990.70
2018-01-21T13:40:10.411Z,990.72
2018-01-21T13:42:03.775Z,990.79
2018-01-21T13:43:03.735Z,990.77
2018-01-21T13:44:57.122Z,990.83
2018-01-21T13:45:57.073Z,990.85
2018-01-21T13:47:50.427Z,990.87
2018-01-21T13:48:50.389Z,990.91
2018-01-21T13:50:43.760Z,990.95
2018-01-21T13:51:43.712Z,990.95
2018-01-21T13:53:39.612Z,991.00
2018-01-21T13:54:39.561Z,991.02
2018-01-21T13:56:32.992Z,991.05
2018-01-21T13:57:32.861Z,991.06
2018-01-21T13:59:26.224Z,991.08
2018-01-21T14:00:26.187Z,991.09
2018-01-21T14:02:19.546Z,991.10
2018-01-21T14:03:19.507Z,991.11
2018-01-21T14:05:12.873Z,991.13
2018-01-21T14:06:12.823Z,991.14
2018-01-21T14:08:06.189Z,991.14
2018-01-21T14:09:06.155Z,991.16
2018-01-21T14:10:59.522Z,991.18
2018-01-21T14:11:59.469Z,991.22
2018-01-21T14:13:55.320Z,991.22
2018-01-21T14:14:55.281Z,991.25
2018-01-21T14:16:48.644Z,991.22
2018-01-21T14:17:48.586Z,991.26
2018-01-21T14:19:41.946Z,991.28
2018-01-21T14:20:41.910Z,991.30
2018-01-21T14:22:37.783Z,991.29
2018-01-21T14:23:37.731Z,991.31
2018-01-21T14:25:31.469Z,991.37
2018-01-21T14:26:31.431Z,991.34
2018-01-21T14:28:25.678Z,991.43
2018-01-21T14:29:25.620Z,991.42
2018-01-21T14:31:18.969Z,991.47
2018-01-21T14:32:18.918Z,991.52
2018-01-21T14:34:12.510Z,991.55
2018-01-21T14:35:12.462Z,991.58
2018-01-21T14:37:05.869Z,991.59
2018-01-21T14:38:05.797Z,991.64
2018-01-21T14:40:01.830Z,991.64
2018-01-21T14:41:01.732Z,991.65
2018-01-21T14:42:55.119Z,991.68
2018-01-21T14:43:55.040Z,991.71
2018-01-21T14:45:50.918Z,991.73
2018-01-21T14:46:50.861Z,991.77
2018-01-21T14:48:44.211Z,991.80
2018-01-21T14:49:44.170Z,991.79
2018-01-21T14:51:37.527Z,991.83
2018-01-21T14:52:37.485Z,991.83
2018-01-21T14:54:30.835Z,991.93
2018-01-21T14:55:30.793Z,991.93
2018-01-21T14:57:24.183Z,991.98
2018-01-21T14:58:24.153Z,991.98
2018-01-21T15:00:17.463Z,992.03
2018-01-21T15:01:17.414Z,992.06
2018-01-21T15:03:10.765Z,992.15
2018-01-21T15:04:10.722Z,992.17
2018-01-21T15:06:04.097Z,992.20
2018-01-21T15:07:04.034Z,992.16
2018-01-21T15:08:58.254Z,992.22
2018-01-21T15:09:58.215Z,992.20
2018-01-21T15:11:51.582Z,992.23
2018-01-21T15:12:51.526Z,992.26
2018-01-21T15:14:44.884Z,992.26
2018-01-21T15:15:44.841Z,992.25
2018-01-21T15:17:38.251Z,992.24
2018-01-21T15:18:38.175Z,992.27
2018-01-21T15:20:31.518Z,992.30
2018-01-21T15:21:31.497Z,992.29
2018-01-21T15:23:24.845Z,992.32
2018-01-21T15:24:24.787Z,992.31
2018-01-21T15:26:18.144Z,992.26
2018-01-21T15:27:18.101Z,992.27
2018-01-21T15:29:11.469Z,992.23
2018-01-21T15:30:11.408Z,992.27
2018-01-21T15:32:04.759Z,992.28
2018-01-21T15:33:04.717Z,992.30
2018-01-21T15:34:59.081Z,992.35
2018-01-21T15:35:59.035Z,992.38
2018-01-21T15:37:55.894Z,992.40
2018-01-21T15:38:55.849Z,992.40
2018-01-21T15:40:51.738Z,992.45
2018-01-21T15:41:51.682Z,992.42
2018-01-21T15:43:45.031Z,992.44
2018-01-21T15:44:44.990Z,992.47
2018-01-21T15:46:38.361Z,992.43
2018-01-21T15:47:38.300Z,992.43
2018-01-21T15:49:31.658Z,992.42
2018-01-21T15:50:31.618Z,992.42
2018-01-21T15:52:24.979Z,992.46
2018-01-21T15:53:24.933Z,992.40
2018-01-21T15:55:18.303Z,992.38
2018-01-21T15:56:18.246Z,992.38
2018-01-21T15:58:11.639Z,992.36
2018-01-21T15:59:11.594Z,992.41
2018-01-21T16:01:07.471Z,992.40
2018-01-21T16:02:07.418Z,992.36
2018-01-21T16:04:00.781Z,992.34
2018-01-21T16:05:00.746Z,992.35
2018-01-21T16:06:53.623Z,992.40
2018-01-21T16:07:53.566Z,992.43
2018-01-21T16:09:47.051Z,992.46
2018-01-21T16:10:47.032Z,992.47
2018-01-21T16:12:40.359Z,992.48
2018-01-21T16:13:40.310Z,992.51
2018-01-21T16:15:33.689Z,992.55
2018-01-21T16:16:33.622Z,992.56
2018-01-21T16:18:27.118Z,992.62
2018-01-21T16:19:27.095Z,992.63
2018-01-21T16:21:20.451Z,992.64
2018-01-21T16:22:20.364Z,992.67
2018-01-21T16:24:14.631Z,992.73
2018-01-21T16:25:14.601Z,992.71
2018-01-21T16:27:07.947Z,992.69
2018-01-21T16:28:07.902Z,992.73
2018-01-21T16:30:01.267Z,992.67
2018-01-21T16:31:01.192Z,992.67
2018-01-21T16:32:54.561Z,992.66
2018-01-21T16:33:54.502Z,992.69
2018-01-21T16:35:47.859Z,992.72
2018-01-21T16:36:47.812Z,992.74
2018-01-21T16:38:42.068Z,992.77
2018-01-21T16:39:42.019Z,992.75
2018-01-21T16:41:35.402Z,992.72
2018-01-21T16:42:35.376Z,992.75
2018-01-21T16:44:31.253Z,992.71
2018-01-21T16:45:31.176Z,992.72
2018-01-21T16:47:25.412Z,992.73
2018-01-21T16:48:25.383Z,992.73
2018-01-21T16:50:21.197Z,992.74
2018-01-21T16:51:21.145Z,992.74
2018-01-21T16:53:14.531Z,992.76
2018-01-21T16:54:14.469Z,992.79
2018-01-21T16:56:08.044Z,992.76
2018-01-21T16:57:07.999Z,992.76
2018-01-21T16:59:01.414Z,992.81
2018-01-21T17:00:01.317Z,992.84
2018-01-21T17:01:57.205Z,992.89
2018-01-21T17:02:57.166Z,992.92
2018-01-21T17:04:50.516Z,993.00
2018-01-21T17:05:50.473Z,992.98
2018-01-21T17:07:43.832Z,993.01
2018-01-21T17:08:43.795Z,993.00
2018-01-21T17:10:37.221Z,993.06
2018-01-21T17:11:37.102Z,993.08
2018-01-21T17:13:30.483Z,993.12
2018-01-21T17:14:30.449Z,993.18
2018-01-21T17:16:26.261Z,993.14
2018-01-21T17:17:26.224Z,993.14
2018-01-21T17:19:19.583Z,993.10
2018-01-21T17:20:19.540Z,993.07
2018-01-21T17:22:12.900Z,993.09
2018-01-21T17:23:12.846Z,993.09
2018-01-21T17:25:06.211Z,993.08
2018-01-21T17:26:06.172Z,993.12
2018-01-21T17:27:59.555Z,993.12
2018-01-21T17:28:59.490Z,993.13
2018-01-21T17:30:52.837Z,993.08
2018-01-21T17:31:52.798Z,993.07
2018-01-21T17:33:46.163Z,993.05
2018-01-21T17:34:46.114Z,993.00
2018-01-21T17:36:41.973Z,992.97
2018-01-21T17:37:41.932Z,992.95
2018-01-21T17:39:35.294Z,992.97
2018-01-21T17:40:35.242Z,993.01
2018-01-21T17:42:28.593Z,992.97
2018-01-21T17:43:28.568Z,992.98
2018-01-21T17:45:21.966Z,992.94
2018-01-21T17:46:21.914Z,992.94
2018-01-21T17:48:15.290Z,992.91
2018-01-21T17:49:15.261Z,992.92
2018-01-21T17:51:08.606Z,992.84
2018-01-21T17:52:08.556Z,992.87
2018-01-21T17:54:01.902Z,992.77
2018-01-21T17:55:01.869Z,992.66
2018-01-21T17:56:55.235Z,992.63
2018-01-21T17:57:55.175Z,992.58
2018-01-21T17:59:48.547Z,992.53
2018-01-21T18:00:48.480Z,992.51
2018-01-21T18:02:41.864Z,992.52
2018-01-21T18:03:41.805Z,992.50